Time;durP1;ratioP1;P1;durP2;ratioP2;P2;SDS_P1;SDS_P2;PMS_P1;PMS_P2;Temp;Humidity;BMP_temperature;BMP_pressure;BME280_temperature;BME280_humidity;BME280_pressure;Samples;Min_cycle;Max_cycle;Signal;HPM_P1;HPM_P2
2023/06/14 00:00:48;;;;;;;;;;;;;;;;;;5081907;28;20265;-80
2023/06/14 00:03:17;;;;;;;;;;;;;;;;;;5083921;28;19947;-80
2023/06/14 00:05:46;;;;;;;;;;;;;;;;;;5084252;28;19931;-80
2023/06/14 00:08:13;;;;;;;;;;;;;;;;;;5083740;28;20463;-80
2023/06/14 00:10:46;;;;;;;;;;;;;;;;;;5081429;28;19928;-80
2023/06/14 00:13:14;;;;;;;;;;;;;;;;;;5081938;28;20399;-80
2023/06/14 00:15:42;;;;;;;;;;;;;;;;;;5084486;28;19935;-80
2023/06/14 00:18:16;;;;;;;;;;;;;;;;;;5083515;28;19928;-80
2023/06/14 00:20:44;;;;;;;;;;;;;;;;;;5099078;28;19924;-80
2023/06/14 00:23:11;;;;;;;;;;;;;;;;;;5085047;28;20610;-80
2023/06/14 00:25:44;;;;;;;;;;;;;;;;;;5089974;28;19925;-81
2023/06/14 00:28:11;;;;;;;;;;;;;;;;;;5080612;28;19932;-80
2023/06/14 00:30:46;;;;;;;;;;;;;;;;;;5089576;28;19995;-80
2023/06/14 00:33:18;;;;;;;;;;;;;;;;;;5095411;28;19928;-80
2023/06/14 00:35:46;;;;;;;;;;;;;;;;;;5084049;28;19931;-80
2023/06/14 00:38:14;;;;;;;;;;;;;;;;;;5094903;28;19924;-80
2023/06/14 00:40:42;;;;;;;;;;;;;;;;;;5079681;28;20296;-81
2023/06/14 00:43:15;;;;;;;;;;;;;;;;;;5089559;28;19928;-80
2023/06/14 00:45:44;;;;;;;;;;;;;;;;;;5080207;28;19925;-80
2023/06/14 00:48:11;;;;;;;;;;;;;;;;;;5082390;28;19928;-79
2023/06/14 00:50:40;;;;;;;;;;;;;;;;;;5081418;28;19931;-80
2023/06/14 00:53:15;;;;;;;;;;;;;;;;;;5080188;28;20297;-80
2023/06/14 00:55:42;;;;;;;;;;;;;;;;;;5078709;28;19928;-80
2023/06/14 00:58:10;;;;;;;;;;;;;;;;;;5082792;28;19932;-79
2023/06/14 01:00:37;;;;;;;;;;;;;;;;;;5080095;28;19928;-80
2023/06/14 01:03:05;;;;;;;;;;;;;;;;;;5080249;28;19925;-80
2023/06/14 01:05:32;;;;;;;;;;;;;;;;;;5082471;28;19940;-80
2023/06/14 01:08:05;;;;;;;;;;;;;;;;;;5083750;28;19928;-80
2023/06/14 01:10:37;;;;;;;;;;;;;;;;;;5084683;28;20407;-80
2023/06/14 01:13:05;;;;;;;;;;;;;;;;;;5082988;28;19925;-80
2023/06/14 01:15:33;;;;;;;;;;;;;;;;;;5082804;28;19935;-80
2023/06/14 01:18:05;;;;;;;;;;;;;;;;;;5099184;28;19924;-81
2023/06/14 01:20:38;;;;;;;;;;;;;;;;;;5078694;28;19935;-80
2023/06/14 01:23:12;;;;;;;;;;;;;;;;;;5082416;28;20704;-80
2023/06/14 01:25:44;;;;;;;;;;;;;;;;;;5081447;28;19929;-80
2023/06/14 01:28:12;;;;;;;;;;;;;;;;;;5080456;28;19940;-80
2023/06/14 01:30:47;;;;;;;;;;;;;;;;;;5082158;28;19928;-80
2023/06/14 01:33:15;;;;;;;;;;;;;;;;;;5079227;28;20284;-80
2023/06/14 01:35:47;;;;;;;;;;;;;;;;;;5082702;28;19939;-80
2023/06/14 01:38:20;;;;;;;;;;;;;;;;;;5082275;28;20324;-80
2023/06/14 01:40:53;;;;;;;;;;;;;;;;;;5089425;28;19935;-81
2023/06/14 01:43:25;;;;;;;;;;;;;;;;;;5079029;28;19929;-81
2023/06/14 01:45:53;;;;;;;;;;;;;;;;;;5079074;28;19935;-80
2023/06/14 01:48:27;;;;;;;;;;;;;;;;;;5089401;27;19935;-80
2023/06/14 01:51:00;;;;;;;;;;;;;;;;;;5082829;28;19928;-80
2023/06/14 01:53:27;;;;;;;;;;;;;;;;;;5080158;28;19935;-80
2023/06/14 01:56:01;;;;;;;;;;;;;;;;;;5095077;28;20597;-80
2023/06/14 01:58:33;;;;;;;;;;;;;;;;;;5079024;28;19931;-81
2023/06/14 02:01:07;;;;;;;;;;;;;;;;;;5083896;28;19933;-80
2023/06/14 02:03:37;;;;;;;;;;;;;;;;;;5075936;28;19924;-80
2023/06/14 02:06:10;;;;;;;;;;;;;;;;;;5083723;28;19935;-80
2023/06/14 02:08:39;;;;;;;;;;;;;;;;;;5079808;28;19939;-80
2023/06/14 02:11:12;;;;;;;;;;;;;;;;;;5081522;28;20506;-80
2023/06/14 02:13:39;;;;;;;;;;;;;;;;;;5078096;28;19924;-80
2023/06/14 02:16:07;;;;;;;;;;;;;;;;;;5081654;28;19931;-80
2023/06/14 02:18:34;;;;;;;;;;;;;;;;;;5081874;28;19931;-80
2023/06/14 02:21:07;;;;;;;;;;;;;;;;;;5098112;28;19963;-80
2023/06/14 02:23:40;;;;;;;;;;;;;;;;;;5079848;28;19924;-80
2023/06/14 02:26:12;;;;;;;;;;;;;;;;;;5082812;28;20678;-80
2023/06/14 02:28:40;;;;;;;;;;;;;;;;;;5078960;28;20443;-80
2023/06/14 02:31:09;;;;;;;;;;;;;;;;;;5079562;28;19924;-80
2023/06/14 02:33:41;;;;;;;;;;;;;;;;;;5077958;28;19939;-80
2023/06/14 02:36:09;;;;;;;;;;;;;;;;;;5087414;28;19928;-80
2023/06/14 02:38:36;;;;;;;;;;;;;;;;;;5089173;28;19936;-80
2023/06/14 02:41:09;;;;;;;;;;;;;;;;;;5082630;28;19924;-80
2023/06/14 02:43:37;;;;;;;;;;;;;;;;;;5081768;28;19929;-80
2023/06/14 02:46:07;;;;;;;;;;;;;;;;;;5088264;28;19928;-81
2023/06/14 02:48:34;;;;;;;;;;;;;;;;;;5080785;28;19924;-79
2023/06/14 02:51:09;;;;;;;;;;;;;;;;;;5087150;28;19928;-80
2023/06/14 02:53:37;;;;;;;;;;;;;;;;;;5078593;28;19935;-80
2023/06/14 02:56:11;;;;;;;;;;;;;;;;;;5080205;28;19956;-80
2023/06/14 02:58:39;;;;;;;;;;;;;;;;;;5080128;28;20392;-80
2023/06/14 03:01:07;;;;;;;;;;;;;;;;;;5078901;28;19935;-81
2023/06/14 03:03:35;;;;;;;;;;;;;;;;;;5078754;28;20300;-80
2023/06/14 03:06:04;;;;;;;;;;;;;;;;;;5078159;28;19935;-80
2023/06/14 03:08:38;;;;;;;;;;;;;;;;;;5083689;28;19928;-80
2023/06/14 03:11:10;;;;;;;;;;;;;;;;;;5080501;28;19928;-80
2023/06/14 03:13:43;;;;;;;;;;;;;;;;;;5077392;28;20860;-80
2023/06/14 03:16:11;;;;;;;;;;;;;;;;;;5074488;28;19924;-80
2023/06/14 03:18:40;;;;;;;;;;;;;;;;;;5077569;28;19925;-80
2023/06/14 03:21:08;;;;;;;;;;;;;;;;;;5087634;28;19927;-80
2023/06/14 03:23:43;;;;;;;;;;;;;;;;;;5085536;28;19935;-80
2023/06/14 03:26:17;;;;;;;;;;;;;;;;;;5084388;28;19928;-80
2023/06/14 03:28:46;;;;;;;;;;;;;;;;;;5086102;28;19928;-80
2023/06/14 03:31:14;;;;;;;;;;;;;;;;;;5080408;28;20368;-80
2023/06/14 03:33:48;;;;;;;;;;;;;;;;;;5077363;28;19924;-80
2023/06/14 03:36:15;;;;;;;;;;;;;;;;;;5080230;28;19924;-80
2023/06/14 03:38:43;;;;;;;;;;;;;;;;;;5079182;28;20361;-80
2023/06/14 03:41:11;;;;;;;;;;;;;;;;;;5077016;28;19924;-80
2023/06/14 03:43:39;;;;;;;;;;;;;;;;;;5089283;28;19939;-80
2023/06/14 03:46:07;;;;;;;;;;;;;;;;;;5077358;28;19925;-81
2023/06/14 03:48:35;;;;;;;;;;;;;;;;;;5078292;28;19932;-81
2023/06/14 03:51:03;;;;;;;;;;;;;;;;;;5076765;28;19932;-80
2023/06/14 03:53:30;;;;;;;;;;;;;;;;;;5085993;28;19924;-80
2023/06/14 03:55:59;;;;;;;;;;;;;;;;;;5078699;28;19929;-80
2023/06/14 03:58:39;;;;;;;;;;;;;;;;;;5087327;28;19928;-80
2023/06/14 04:01:07;;;;;;;;;;;;;;;;;;5075975;28;19950;-81
2023/06/14 04:03:41;;;;;;;;;;;;;;;;;;5083377;28;19939;-81
2023/06/14 04:06:19;;;;;;;;;;;;;;;;;;5079008;28;19935;-80
2023/06/14 04:08:49;;;;;;;;;;;;;;;;;;5080614;28;20431;-80
2023/06/14 04:11:16;;;;;;;;;;;;;;;;;;5090057;28;19924;-79
2023/06/14 04:13:44;;;;;;;;;;;;;;;;;;5072356;28;19928;-80
2023/06/14 04:16:17;;;;;;;;;;;;;;;;;;5076222;28;19928;-80
2023/06/14 04:18:44;;;;;;;;;;;;;;;;;;5082956;28;19928;-80
2023/06/14 04:21:17;;;;;;;;;;;;;;;;;;5076633;28;19931;-80
2023/06/14 04:23:52;;;;;;;;;;;;;;;;;;5076683;28;19931;-80
2023/06/14 04:26:23;;;;;;;;;;;;;;;;;;5077137;28;19928;-81
2023/06/14 04:28:51;;;;;;;;;;;;;;;;;;5078032;28;19931;-79
2023/06/14 04:31:18;;;;;;;;;;;;;;;;;;5075548;28;19928;-80
2023/06/14 04:33:53;;;;;;;;;;;;;;;;;;5086098;28;19950;-80
2023/06/14 04:36:27;;;;;;;;;;;;;;;;;;5093814;28;20420;-80
2023/06/14 04:39:00;;;;;;;;;;;;;;;;;;5080521;28;19924;-81
2023/06/14 04:41:33;;;;;;;;;;;;;;;;;;5083950;28;20711;-81
2023/06/14 04:44:07;;;;;;;;;;;;;;;;;;5082201;28;20293;-80
2023/06/14 04:46:45;;;;;;;;;;;;;;;;;;5083632;28;19924;-80
2023/06/14 04:49:17;;;;;;;;;;;;;;;;;;5081625;28;19947;-80
2023/06/14 04:51:45;;;;;;;;;;;;;;;;;;5085080;28;20292;-80
2023/06/14 04:54:18;;;;;;;;;;;;;;;;;;5098734;28;19935;-80
2023/06/14 04:56:46;;;;;;;;;;;;;;;;;;5082046;28;20296;-80
2023/06/14 04:59:14;;;;;;;;;;;;;;;;;;5062495;28;19955;-81
2023/06/14 05:01:48;;;;;;;;;;;;;;;;;;5079943;28;19929;-80
2023/06/14 05:04:15;;;;;;;;;;;;;;;;;;5086380;28;19924;-80
2023/06/14 05:06:48;;;;;;;;;;;;;;;;;;5087056;28;19931;-80
2023/06/14 05:09:16;;;;;;;;;;;;;;;;;;5088372;28;19924;-80
2023/06/14 05:11:50;;;;;;;;;;;;;;;;;;5087763;28;19924;-80
2023/06/14 05:14:18;;;;;;;;;;;;;;;;;;5085012;28;19929;-80
2023/06/14 05:16:48;;;;;;;;;;;;;;;;;;5077867;28;19935;-80
2023/06/14 05:19:21;;;;;;;;;;;;;;;;;;5079824;28;19928;-80
2023/06/14 05:21:49;;;;;;;;;;;;;;;;;;5082501;28;19928;-80
2023/06/14 05:24:17;;;;;;;;;;;;;;;;;;5081855;28;19924;-80
2023/06/14 05:26:45;;;;;;;;;;;;;;;;;;5077038;28;19931;-80
2023/06/14 05:29:13;;;;;;;;;;;;;;;;;;5079862;28;19929;-81
2023/06/14 05:31:45;;;;;;;;;;;;;;;;;;5081277;28;19931;-79
2023/06/14 05:34:18;;;;;;;;;;;;;;;;;;5080768;28;19936;-80
2023/06/14 05:36:46;;;;;;;;;;;;;;;;;;5076837;28;19959;-80
2023/06/14 05:39:19;;;;;;;;;;;;;;;;;;5081488;28;19924;-79
2023/06/14 05:41:46;;;;;;;;;;;;;;;;;;5080384;28;19924;-79
2023/06/14 05:44:14;;;;;;;;;;;;;;;;;;5079042;28;19928;-81
2023/06/14 05:46:41;;;;;;;;;;;;;;;;;;5082368;28;19931;-78
2023/06/14 05:49:09;;;;;;;;;;;;;;;;;;5081875;28;20487;-80
2023/06/14 05:51:37;;;;;;;;;;;;;;;;;;5083016;28;19940;-79
2023/06/14 05:54:09;;;;;;;;;;;;;;;;;;5080438;28;19928;-79
2023/06/14 05:56:42;;;;;;;;;;;;;;;;;;5082413;28;19928;-80
2023/06/14 05:59:09;;;;;;;;;;;;;;;;;;5083439;28;19939;-79
2023/06/14 06:01:40;;;;;;;;;;;;;;;;;;5072813;28;20119;-80
2023/06/14 06:04:12;;;;;;;;;;;;;;;;;;5077219;28;19950;-79
2023/06/14 06:06:45;;;;;;;;;;;;;;;;;;5078830;28;19932;-80
2023/06/14 06:09:17;;;;;;;;;;;;;;;;;;5079277;28;19931;-81
2023/06/14 06:11:45;;;;;;;;;;;;;;;;;;5081819;28;19931;-80
2023/06/14 06:14:17;;;;;;;;;;;;;;;;;;5092809;28;20300;-79
2023/06/14 06:16:45;;;;;;;;;;;;;;;;;;5079120;28;19932;-81
2023/06/14 06:19:13;;;;;;;;;;;;;;;;;;5083116;28;19931;-80
2023/06/14 06:21:45;;;;;;;;;;;;;;;;;;5075847;28;19932;-80
2023/06/14 06:24:13;;;;;;;;;;;;;;;;;;5079748;28;19931;-80
2023/06/14 06:26:45;;;;;;;;;;;;;;;;;;5077935;28;19941;-80
2023/06/14 06:29:13;;;;;;;;;;;;;;;;;;5081349;28;19924;-79
2023/06/14 06:31:40;;;;;;;;;;;;;;;;;;5078650;28;20270;-79
2023/06/14 06:34:08;;;;;;;;;;;;;;;;;;5079847;28;20274;-79
2023/06/14 06:36:41;;;;;;;;;;;;;;;;;;5078085;28;19928;-78
2023/06/14 06:39:14;;;;;;;;;;;;;;;;;;5079131;28;19935;-78
2023/06/14 06:41:47;;;;;;;;;;;;;;;;;;5095196;28;19939;-79
2023/06/14 06:44:28;;;;;;;;;;;;;;;;;;5094483;28;19928;-80
2023/06/14 06:46:56;;;;;;;;;;;;;;;;;;5086575;28;19924;-78
2023/06/14 06:49:23;;;;;;;;;;;;;;;;;;5072435;28;19939;-80
2023/06/14 06:51:51;;;;;;;;;;;;;;;;;;5068064;28;19931;-80
2023/06/14 06:54:19;;;;;;;;;;;;;;;;;;5066998;28;19947;-80
2023/06/14 06:56:46;;;;;;;;;;;;;;;;;;5058787;28;20616;-80
2023/06/14 06:59:16;;;;;;;;;;;;;;;;;;5058158;28;19932;-81
2023/06/14 07:01:44;;;;;;;;;;;;;;;;;;5061020;28;19932;-79
2023/06/14 07:04:11;;;;;;;;;;;;;;;;;;5052440;28;19931;-80
2023/06/14 07:06:44;;;;;;;;;;;;;;;;;;5059473;28;19931;-82
2023/06/14 07:09:14;;;;;;;;;;;;;;;;;;5057815;28;20671;-80
2023/06/14 07:11:47;;;;;;;;;;;;;;;;;;5058971;28;19931;-80
2023/06/14 07:14:15;;;;;;;;;;;;;;;;;;5055759;28;20663;-82
2023/06/14 07:16:49;;;;;;;;;;;;;;;;;;5051837;28;19932;-80
2023/06/14 07:19:21;;;;;;;;;;;;;;;;;;5052519;28;19932;-81
2023/06/14 07:21:49;;;;;;;;;;;;;;;;;;5064374;28;19932;-84
2023/06/14 07:24:22;;;;;;;;;;;;;;;;;;5060603;28;19932;-80
2023/06/14 07:26:56;;;;;;;;;;;;;;;;;;5055138;28;19997;-79
2023/06/14 07:29:23;;;;;;;;;;;;;;;;;;5060543;28;20636;-79
2023/06/14 07:31:51;;;;;;;;;;;;;;;;;;5061108;28;19939;-81
2023/06/14 07:34:18;;;;;;;;;;;;;;;;;;5062796;28;19939;-79
2023/06/14 07:36:46;;;;;;;;;;;;;;;;;;5063496;28;20059;-79
2023/06/14 07:39:14;;;;;;;;;;;;;;;;;;5066962;28;20809;-79
2023/06/14 07:41:46;;;;;;;;;;;;;;;;;;5062755;28;19967;-78
2023/06/14 07:44:19;;;;;;;;;;;;;;;;;;5059515;28;19932;-79
2023/06/14 07:46:51;;;;;;;;;;;;;;;;;;5067182;28;19931;-79
2023/06/14 07:49:19;;;;;;;;;;;;;;;;;;5061258;28;20042;-80
2023/06/14 07:51:53;;;;;;;;;;;;;;;;;;5038554;28;19939;-79
2023/06/14 07:54:24;;;;;;;;;;;;;;;;;;5035784;28;19933;-80
2023/06/14 07:56:52;;;;;;;;;;;;;;;;;;5036927;28;19932;-79
2023/06/14 07:59:24;;;;;;;;;;;;;;;;;;5039507;28;19940;-80
2023/06/14 08:01:57;;;;;;;;;;;;;;;;;;5035867;28;19932;-80
2023/06/14 08:04:24;;;;;;;;;;;;;;;;;;5036605;28;19932;-80
2023/06/14 08:06:52;;;;;;;;;;;;;;;;;;5037519;28;19940;-81
2023/06/14 08:09:25;;;;;;;;;;;;;;;;;;5039736;28;20475;-79
2023/06/14 08:11:58;;;;;;;;;;;;;;;;;;5039594;28;20089;-80
2023/06/14 08:14:26;;;;;;;;;;;;;;;;;;5039029;28;19939;-79
2023/06/14 08:16:58;;;;;;;;;;;;;;;;;;5039805;28;20187;-80
2023/06/14 08:19:26;;;;;;;;;;;;;;;;;;5040715;28;19932;-80
2023/06/14 08:21:58;;;;;;;;;;;;;;;;;;5038916;28;19932;-79
2023/06/14 08:24:26;;;;;;;;;;;;;;;;;;5040147;28;21358;-79
2023/06/14 08:26:54;;;;;;;;;;;;;;;;;;5043942;28;19932;-81
2023/06/14 08:29:21;;;;;;;;;;;;;;;;;;5042497;28;19933;-79
2023/06/14 08:31:54;;;;;;;;;;;;;;;;;;5040755;28;20380;-80
2023/06/14 08:34:23;;;;;;;;;;;;;;;;;;5039080;28;19950;-80
2023/06/14 08:36:56;;;;;;;;;;;;;;;;;;5042448;28;21171;-81
2023/06/14 08:39:28;;;;;;;;;;;;;;;;;;5046053;28;19929;-80
2023/06/14 08:42:01;;;;;;;;;;;;;;;;;;5044331;28;19915;-79
2023/06/14 08:44:33;;;;;;;;;;;;;;;;;;5041079;28;19929;-85
2023/06/14 08:47:03;;;;;;;;;;;;;;;;;;5040691;28;19928;-84
2023/06/14 08:49:30;;;;;;;;;;;;;;;;;;5028819;28;19939;-87
2023/06/14 08:51:58;;;;;;;;;;;;;;;;;;5036892;28;20440;-88
2023/06/14 08:54:27;;;;;;;;;;;;;;;;;;5042180;28;19933;-81
2023/06/14 08:56:59;;;;;;;;;;;;;;;;;;5042016;28;20931;-80
2023/06/14 08:59:27;;;;;;;;;;;;;;;;;;5040379;28;19932;-83
2023/06/14 09:01:55;;;;;;;;;;;;;;;;;;5038111;28;19955;-83
2023/06/14 09:04:23;;;;;;;;;;;;;;;;;;5037168;28;20345;-82
2023/06/14 09:06:56;;;;;;;;;;;;;;;;;;5039454;28;20026;-85
2023/06/14 09:09:29;;;;;;;;;;;;;;;;;;5041016;28;19932;-89
2023/06/14 09:11:56;;;;;;;;;;;;;;;;;;5043235;28;19936;-86
2023/06/14 09:14:24;;;;;;;;;;;;;;;;;;5047470;28;20431;-83
2023/06/14 09:16:52;;;;;;;;;;;;;;;;;;5041742;28;19933;-90
2023/06/14 09:19:19;;;;;;;;;;;;;;;;;;5040031;28;19940;-82
2023/06/14 09:21:47;;;;;;;;;;;;;;;;;;5047314;28;19933;-86
2023/06/14 09:24:15;;;;;;;;;;;;;;;;;;5035544;28;19940;-80
2023/06/14 09:26:48;;;;;;;;;;;;;;;;;;5040124;28;20357;-81
2023/06/14 09:29:20;;;;;;;;;;;;;;;;;;5042742;28;19932;-79
2023/06/14 09:31:48;;;;;;;;;;;;;;;;;;5058705;28;20736;-81
2023/06/14 09:34:23;;;;;;;;;;;;;;;;;;5045217;28;19932;-88
2023/06/14 09:36:51;;;;;;;;;;;;;;;;;;5044118;28;19941;-80
2023/06/14 09:39:18;;;;;;;;;;;;;;;;;;5041677;28;19939;-81
2023/06/14 09:41:46;;;;;;;;;;;;;;;;;;5044105;28;19932;-82
2023/06/14 09:44:13;;;;;;;;;;;;;;;;;;5036615;28;19939;-78
2023/06/14 09:46:46;;;;;;;;;;;;;;;;;;5046497;28;20638;-78
2023/06/14 09:49:18;;;;;;;;;;;;;;;;;;5043630;28;19932;-77
2023/06/14 09:51:51;;;;;;;;;;;;;;;;;;5040673;28;19950;-85
2023/06/14 09:54:19;;;;;;;;;;;;;;;;;;5047049;28;19932;-83
2023/06/14 09:56:46;;;;;;;;;;;;;;;;;;5047747;28;20305;-79
2023/06/14 09:59:14;;;;;;;;;;;;;;;;;;5046895;28;19932;-78
2023/06/14 10:01:41;;;;;;;;;;;;;;;;;;5047902;28;19940;-85
2023/06/14 10:04:09;;;;;;;;;;;;;;;;;;5043953;28;21695;-91
2023/06/14 10:06:37;;;;;;;;;;;;;;;;;;5055368;28;19938;-82
2023/06/14 10:09:05;;;;;;;;;;;;;;;;;;5049351;28;19932;-85
2023/06/14 10:11:38;;;;;;;;;;;;;;;;;;5047942;28;19932;-79
2023/06/14 10:14:10;;;;;;;;;;;;;;;;;;5047185;28;19939;-80
2023/06/14 10:16:43;;;;;;;;;;;;;;;;;;5046374;28;19929;-87
2023/06/14 10:19:16;;;;;;;;;;;;;;;;;;5046474;28;20595;-81
2023/06/14 10:21:43;;;;;;;;;;;;;;;;;;5046154;28;19944;-79
2023/06/14 10:24:16;;;;;;;;;;;;;;;;;;5043416;28;19967;-79
2023/06/14 10:26:48;;;;;;;;;;;;;;;;;;5061880;28;21029;-83
2023/06/14 10:29:16;;;;;;;;;;;;;;;;;;5041933;28;19939;-80
2023/06/14 10:31:48;;;;;;;;;;;;;;;;;;5039763;28;19933;-77
2023/06/14 10:34:16;;;;;;;;;;;;;;;;;;5043351;28;19933;-78
2023/06/14 10:36:43;;;;;;;;;;;;;;;;;;5046533;28;19929;-77
2023/06/14 10:39:11;;;;;;;;;;;;;;;;;;5044717;28;20297;-82
2023/06/14 10:41:42;;;;;;;;;;;;;;;;;;5046825;28;19943;-80
2023/06/14 10:44:15;;;;;;;;;;;;;;;;;;5041381;28;20269;-79
2023/06/14 10:46:42;;;;;;;;;;;;;;;;;;5049976;28;19933;-84
2023/06/14 10:49:10;;;;;;;;;;;;;;;;;;5040368;28;19932;-80
2023/06/14 10:51:46;;;;;;;;;;;;;;;;;;5029439;28;19940;-82
2023/06/14 10:54:18;;;;;;;;;;;;;;;;;;5039695;28;19933;-78
2023/06/14 10:56:51;;;;;;;;;;;;;;;;;;5037576;28;19932;-85
2023/06/14 10:59:23;;;;;;;;;;;;;;;;;;5041823;28;20707;-86
2023/06/14 11:01:56;;;;;;;;;;;;;;;;;;5043437;28;19939;-85
2023/06/14 11:04:28;;;;;;;;;;;;;;;;;;5039258;28;20412;-82
2023/06/14 11:07:00;;;;;;;;;;;;;;;;;;5040074;28;19928;-80
2023/06/14 11:09:36;;;;;;;;;;;;;;;;;;5045017;28;19928;-85
2023/06/14 11:12:03;;;;;;;;;;;;;;;;;;5038254;28;19933;-86
2023/06/14 11:14:36;;;;;;;;;;;;;;;;;;5036313;28;19932;-82
2023/06/14 11:17:05;;;;;;;;;;;;;;;;;;5041187;28;19940;-83
2023/06/14 11:19:38;;;;;;;;;;;;;;;;;;5036616;28;20900;-85
2023/06/14 11:22:10;;;;;;;;;;;;;;;;;;5037417;28;19932;-86
2023/06/14 11:24:43;;;;;;;;;;;;;;;;;;5036251;28;19933;-83
2023/06/14 11:27:11;;;;;;;;;;;;;;;;;;5038597;28;19939;-85
2023/06/14 11:29:38;;;;;;;;;;;;;;;;;;5036821;28;19943;-83
2023/06/14 11:32:12;;;;;;;;;;;;;;;;;;5038936;28;19940;-83
2023/06/14 11:34:39;;;;;;;;;;;;;;;;;;5038956;28;19932;-82
2023/06/14 11:37:07;;;;;;;;;;;;;;;;;;5037134;28;20588;-82
2023/06/14 11:39:35;;;;;;;;;;;;;;;;;;5042948;28;19928;-82
2023/06/14 11:42:03;;;;;;;;;;;;;;;;;;5048375;28;19933;-84
2023/06/14 11:44:31;;;;;;;;;;;;;;;;;;5043641;28;19932;-86
2023/06/14 11:47:03;;;;;;;;;;;;;;;;;;5044633;28;19939;-80
2023/06/14 11:49:31;;;;;;;;;;;;;;;;;;5044958;28;20523;-85
2023/06/14 11:51:59;;;;;;;;;;;;;;;;;;5034581;28;20403;-82
2023/06/14 11:54:26;;;;;;;;;;;;;;;;;;5045067;28;19936;-84
2023/06/14 11:56:54;;;;;;;;;;;;;;;;;;5043562;28;20490;-85
2023/06/14 11:59:21;;;;;;;;;;;;;;;;;;5043815;28;19986;-82
2023/06/14 12:01:49;;;;;;;;;;;;;;;;;;5044863;28;19932;-83
2023/06/14 12:04:16;;;;;;;;;;;;;;;;;;5052911;28;19932;-88
2023/06/14 12:06:49;;;;;;;;;;;;;;;;;;5047884;28;20405;-81
2023/06/14 12:09:18;;;;;;;;;;;;;;;;;;5047538;28;20368;-82
2023/06/14 12:11:50;;;;;;;;;;;;;;;;;;5052246;28;19932;-84
2023/06/14 12:14:18;;;;;;;;;;;;;;;;;;5047226;28;19947;-79
2023/06/14 12:16:46;;;;;;;;;;;;;;;;;;5045681;28;20577;-81
2023/06/14 12:19:13;;;;;;;;;;;;;;;;;;5048938;28;19932;-85
2023/06/14 12:21:41;;;;;;;;;;;;;;;;;;5049037;28;19932;-83
2023/06/14 12:24:11;;;;;;;;;;;;;;;;;;5049543;28;19943;-79
2023/06/14 12:26:39;;;;;;;;;;;;;;;;;;5045379;28;20616;-80
2023/06/14 12:29:07;;;;;;;;;;;;;;;;;;5050171;28;20278;-83
2023/06/14 12:31:40;;;;;;;;;;;;;;;;;;5051006;28;19924;-80
2023/06/14 12:34:12;;;;;;;;;;;;;;;;;;5039601;28;20539;-83
2023/06/14 12:36:46;;;;;;;;;;;;;;;;;;5047591;28;19932;-82
2023/06/14 12:39:13;;;;;;;;;;;;;;;;;;5062661;28;19944;-80
2023/06/14 12:41:41;;;;;;;;;;;;;;;;;;5048531;28;19932;-81
2023/06/14 12:44:14;;;;;;;;;;;;;;;;;;5044005;28;19932;-82
2023/06/14 12:46:42;;;;;;;;;;;;;;;;;;5045432;28;21599;-83
2023/06/14 12:49:15;;;;;;;;;;;;;;;;;;5046015;28;19933;-86
2023/06/14 12:51:42;;;;;;;;;;;;;;;;;;5018755;28;19932;-83
2023/06/14 12:54:10;;;;;;;;;;;;;;;;;;5048674;28;19940;-77
2023/06/14 12:56:37;;;;;;;;;;;;;;;;;;5044885;28;19932;-79
2023/06/14 12:59:05;;;;;;;;;;;;;;;;;;5044426;28;19939;-79
2023/06/14 13:01:33;;;;;;;;;;;;;;;;;;5049304;28;19940;-80
2023/06/14 13:04:06;;;;;;;;;;;;;;;;;;5051913;28;19932;-84
2023/06/14 13:06:33;;;;;;;;;;;;;;;;;;5048531;28;19939;-85
2023/06/14 13:09:01;;;;;;;;;;;;;;;;;;5054373;28;19943;-80
2023/06/14 13:11:29;;;;;;;;;;;;;;;;;;5053086;28;19932;-83
2023/06/14 13:14:01;;;;;;;;;;;;;;;;;;5050376;28;19936;-85
2023/06/14 13:16:29;;;;;;;;;;;;;;;;;;5052995;28;20475;-80
2023/06/14 13:19:02;;;;;;;;;;;;;;;;;;5046748;28;19933;-86
2023/06/14 13:21:29;;;;;;;;;;;;;;;;;;5053072;28;20373;-77
2023/06/14 13:23:57;;;;;;;;;;;;;;;;;;5049575;28;19932;-82
2023/06/14 13:26:25;;;;;;;;;;;;;;;;;;5053180;28;19980;-78
2023/06/14 13:28:52;;;;;;;;;;;;;;;;;;5053108;28;19945;-80
2023/06/14 13:31:20;;;;;;;;;;;;;;;;;;5046637;28;19932;-82
2023/06/14 13:33:47;;;;;;;;;;;;;;;;;;5048183;28;19936;-82
2023/06/14 13:36:15;;;;;;;;;;;;;;;;;;5049951;28;20412;-83
2023/06/14 13:38:42;;;;;;;;;;;;;;;;;;5046902;28;19932;-84
2023/06/14 13:41:10;;;;;;;;;;;;;;;;;;5048097;28;19925;-79
2023/06/14 13:43:37;;;;;;;;;;;;;;;;;;5055695;28;20436;-81
2023/06/14 13:46:05;;;;;;;;;;;;;;;;;;5046437;28;19940;-85
2023/06/14 13:48:38;;;;;;;;;;;;;;;;;;5046849;28;19940;-82
2023/06/14 13:51:05;;;;;;;;;;;;;;;;;;5018237;28;19936;-86
2023/06/14 13:53:36;;;;;;;;;;;;;;;;;;5048915;28;20137;-89
2023/06/14 13:56:03;;;;;;;;;;;;;;;;;;5048881;28;19932;-85
2023/06/14 13:58:31;;;;;;;;;;;;;;;;;;5047180;28;19943;-81
2023/06/14 14:00:59;;;;;;;;;;;;;;;;;;5050487;28;19944;-81
2023/06/14 14:03:27;;;;;;;;;;;;;;;;;;5047600;28;19932;-84
2023/06/14 14:05:54;;;;;;;;;;;;;;;;;;5051363;28;19933;-81
2023/06/14 14:08:23;;;;;;;;;;;;;;;;;;5048005;28;19933;-82
2023/06/14 14:10:50;;;;;;;;;;;;;;;;;;5049226;28;20297;-84
2023/06/14 14:13:18;;;;;;;;;;;;;;;;;;5049751;28;20373;-83
2023/06/14 14:15:46;;;;;;;;;;;;;;;;;;5043924;28;19948;-83
2023/06/14 14:18:18;;;;;;;;;;;;;;;;;;5044871;28;19933;-82
2023/06/14 14:20:46;;;;;;;;;;;;;;;;;;5045205;28;19932;-81
2023/06/14 14:23:13;;;;;;;;;;;;;;;;;;5048752;28;21016;-84
2023/06/14 14:25:41;;;;;;;;;;;;;;;;;;5045493;28;19931;-85
2023/06/14 14:28:08;;;;;;;;;;;;;;;;;;5049695;28;19936;-85
2023/06/14 14:30:39;;;;;;;;;;;;;;;;;;5048296;28;19928;-83
2023/06/14 14:33:07;;;;;;;;;;;;;;;;;;5045879;28;20444;-78
2023/06/14 14:35:34;;;;;;;;;;;;;;;;;;5041884;28;19932;-79
2023/06/14 14:38:07;;;;;;;;;;;;;;;;;;5047026;28;19929;-81
2023/06/14 14:40:46;;;;;;;;;;;;;;;;;;5050382;28;19932;-83
2023/06/14 14:43:18;;;;;;;;;;;;;;;;;;5043170;28;19933;-87
2023/06/14 14:45:46;;;;;;;;;;;;;;;;;;5045824;28;19943;-88
2023/06/14 14:48:13;;;;;;;;;;;;;;;;;;5052444;28;19932;-89
2023/06/14 14:50:43;;;;;;;;;;;;;;;;;;5051622;28;19932;-87
2023/06/14 14:53:11;;;;;;;;;;;;;;;;;;5040941;28;19932;-85
2023/06/14 14:55:41;;;;;;;;;;;;;;;;;;5048093;28;19933;-83
2023/06/14 14:58:08;;;;;;;;;;;;;;;;;;5052061;28;19957;-83
2023/06/14 15:00:36;;;;;;;;;;;;;;;;;;5051112;28;19945;-80
2023/06/14 15:03:03;;;;;;;;;;;;;;;;;;5049438;28;20173;-83
2023/06/14 15:05:37;;;;;;;;;;;;;;;;;;5049933;28;19932;-87
2023/06/14 15:08:11;;;;;;;;;;;;;;;;;;5046813;28;19940;-86
2023/06/14 15:10:41;;;;;;;;;;;;;;;;;;5049341;28;20604;-80
2023/06/14 15:13:13;;;;;;;;;;;;;;;;;;5048524;28;19932;-84
2023/06/14 15:15:41;;;;;;;;;;;;;;;;;;5050389;28;19943;-83
2023/06/14 15:18:15;;;;;;;;;;;;;;;;;;5049627;28;19933;-88
2023/06/14 15:20:43;;;;;;;;;;;;;;;;;;5044218;28;19933;-85
2023/06/14 15:23:10;;;;;;;;;;;;;;;;;;5043532;28;19928;-80
2023/06/14 15:25:38;;;;;;;;;;;;;;;;;;5044876;28;19936;-86
2023/06/14 15:28:06;;;;;;;;;;;;;;;;;;5047485;28;19955;-84
2023/06/14 15:30:39;;;;;;;;;;;;;;;;;;5051768;28;19933;-81
2023/06/14 15:33:06;;;;;;;;;;;;;;;;;;5055971;28;19932;-85
2023/06/14 15:35:34;;;;;;;;;;;;;;;;;;5049990;28;20401;-84
2023/06/14 15:38:02;;;;;;;;;;;;;;;;;;5051627;28;20393;-83
2023/06/14 15:40:29;;;;;;;;;;;;;;;;;;5044712;28;19939;-84
2023/06/14 15:42:57;;;;;;;;;;;;;;;;;;5045050;28;20371;-85
2023/06/14 15:45:25;;;;;;;;;;;;;;;;;;5045920;28;19933;-86
2023/06/14 15:47:52;;;;;;;;;;;;;;;;;;5045310;28;20177;-87
2023/06/14 15:50:20;;;;;;;;;;;;;;;;;;5046345;28;20599;-83
2023/06/14 15:52:48;;;;;;;;;;;;;;;;;;5038625;28;20400;-88
2023/06/14 15:55:16;;;;;;;;;;;;;;;;;;5052483;28;19928;-86
2023/06/14 15:57:44;;;;;;;;;;;;;;;;;;5050727;28;19931;-81
2023/06/14 16:00:19;;;;;;;;;;;;;;;;;;5052298;28;19979;-82
2023/06/14 16:02:49;;;;;;;;;;;;;;;;;;5050668;28;19933;-84
2023/06/14 16:05:16;;;;;;;;;;;;;;;;;;5056858;28;21169;-82
2023/06/14 16:07:44;;;;;;;;;;;;;;;;;;5052769;28;19932;-86
2023/06/14 16:10:12;;;;;;;;;;;;;;;;;;5050044;28;19943;-88
2023/06/14 16:12:40;;;;;;;;;;;;;;;;;;5051874;28;20784;-84
2023/06/14 16:15:07;;;;;;;;;;;;;;;;;;5059720;28;20308;-84
2023/06/14 16:17:35;;;;;;;;;;;;;;;;;;5053960;28;20381;-83
2023/06/14 16:20:03;;;;;;;;;;;;;;;;;;5069706;28;19929;-86
2023/06/14 16:22:35;;;;;;;;;;;;;;;;;;5064933;28;19928;-84
2023/06/14 16:25:04;;;;;;;;;;;;;;;;;;5061895;28;19924;-80
2023/06/14 16:27:31;;;;;;;;;;;;;;;;;;5065366;28;19924;-81
2023/06/14 16:29:59;;;;;;;;;;;;;;;;;;5074801;28;19932;-85
2023/06/14 16:32:27;;;;;;;;;;;;;;;;;;5057123;28;20404;-89
2023/06/14 16:34:55;;;;;;;;;;;;;;;;;;5063958;28;19936;-90
2023/06/14 16:37:23;;;;;;;;;;;;;;;;;;5062194;28;19925;-82
2023/06/14 16:39:50;;;;;;;;;;;;;;;;;;5065650;28;19925;-82
2023/06/14 16:42:18;;;;;;;;;;;;;;;;;;5063713;28;19932;-85
2023/06/14 16:44:45;;;;;;;;;;;;;;;;;;5064974;28;20373;-80
2023/06/14 16:47:13;;;;;;;;;;;;;;;;;;5061962;28;19932;-84
2023/06/14 16:49:41;;;;;;;;;;;;;;;;;;5065819;28;19936;-87
2023/06/14 16:52:13;;;;;;;;;;;;;;;;;;5070139;28;19941;-84
2023/06/14 16:54:41;;;;;;;;;;;;;;;;;;5061058;28;19932;-84
2023/06/14 16:57:08;;;;;;;;;;;;;;;;;;5060973;28;20324;-81
2023/06/14 16:59:36;;;;;;;;;;;;;;;;;;5061346;28;19935;-82
2023/06/14 17:02:08;;;;;;;;;;;;;;;;;;5060639;28;19933;-81